sensor_id;sensor_type;location;lat;lon;timestamp;temperature;humidity
3312;DHT22;1668;49.648;8.570;2024-03-25T00:00:21;7.30;1.00
3312;DHT22;1668;49.648;8.570;2024-03-25T00:02:51;7.30;1.00
3312;DHT22;1668;49.648;8.570;2024-03-25T00:05:17;7.30;8.10
3312;DHT22;1668;49.648;8.570;2024-03-25T00:07:48;7.30;1.00
3312;DHT22;1668;49.648;8.570;2024-03-25T00:10:14;7.30;1.00
3312;DHT22;1668;49.648;8.570;2024-03-25T00:12:41;7.30;4.30
3312;DHT22;1668;49.648;8.570;2024-03-25T00:15:08;7.20;1.00
3312;DHT22;1668;49.648;8.570;2024-03-25T00:17:35;7.20;1.00
3312;DHT22;1668;49.648;8.570;2024-03-25T00:20:03;7.20;1.00
3312;DHT22;1668;49.648;8.570;2024-03-25T00:22:31;7.20;95.80
3312;DHT22;1668;49.648;8.570;2024-03-25T00:24:57;7.30;29.60
3312;DHT22;1668;49.648;8.570;2024-03-25T00:27:24;7.20;13.20
3312;DHT22;1668;49.648;8.570;2024-03-25T00:29:50;7.20;1.00
3312;DHT22;1668;49.648;8.570;2024-03-25T00:32:17;7.20;1.00
3312;DHT22;1668;49.648;8.570;2024-03-25T00:34:43;7.20;1.00
3312;DHT22;1668;49.648;8.570;2024-03-25T00:37:11;7.20;1.00
3312;DHT22;1668;49.648;8.570;2024-03-25T00:39:37;7.20;1.00
3312;DHT22;1668;49.648;8.570;2024-03-25T00:42:04;7.20;1.00
3312;DHT22;1668;49.648;8.570;2024-03-25T00:44:30;7.20;1.00
3312;DHT22;1668;49.648;8.570;2024-03-25T00:46:57;7.20;1.00
3312;DHT22;1668;49.648;8.570;2024-03-25T00:49:24;7.20;1.00
3312;DHT22;1668;49.648;8.570;2024-03-25T00:51:51;7.20;1.00
3312;DHT22;1668;49.648;8.570;2024-03-25T00:54:19;7.20;1.00
3312;DHT22;1668;49.648;8.570;2024-03-25T00:56:46;7.20;1.00
3312;DHT22;1668;49.648;8.570;2024-03-25T00:59:12;7.20;1.00
3312;DHT22;1668;49.648;8.570;2024-03-25T01:01:39;7.20;1.00
3312;DHT22;1668;49.648;8.570;2024-03-25T01:04:05;7.20;1.00
3312;DHT22;1668;49.648;8.570;2024-03-25T01:06:31;7.20;1.00
3312;DHT22;1668;49.648;8.570;2024-03-25T01:08:57;7.20;1.00
3312;DHT22;1668;49.648;8.570;2024-03-25T01:11:26;7.20;18.20
3312;DHT22;1668;49.648;8.570;2024-03-25T01:13:52;7.20;9.90
3312;DHT22;1668;49.648;8.570;2024-03-25T01:16:19;7.20;1.00
3312;DHT22;1668;49.648;8.570;2024-03-25T01:18:45;7.10;1.00
3312;DHT22;1668;49.648;8.570;2024-03-25T01:21:11;7.10;1.00
3312;DHT22;1668;49.648;8.570;2024-03-25T01:23:37;7.10;1.00
3312;DHT22;1668;49.648;8.570;2024-03-25T01:26:04;7.10;1.00
3312;DHT22;1668;49.648;8.570;2024-03-25T01:28:32;7.00;37.50
3312;DHT22;1668;49.648;8.570;2024-03-25T01:30:59;7.00;14.30
3312;DHT22;1668;49.648;8.570;2024-03-25T01:33:25;7.00;1.00
3312;DHT22;1668;49.648;8.570;2024-03-25T01:35:52;7.00;5.10
3312;DHT22;1668;49.648;8.570;2024-03-25T01:38:20;6.90;97.20
3312;DHT22;1668;49.648;8.570;2024-03-25T01:40:47;6.90;99.90
3312;DHT22;1668;49.648;8.570;2024-03-25T01:43:13;6.90;99.90
3312;DHT22;1668;49.648;8.570;2024-03-25T01:45:42;6.90;99.90
3312;DHT22;1668;49.648;8.570;2024-03-25T01:48:10;6.80;99.90
3312;DHT22;1668;49.648;8.570;2024-03-25T01:50:42;6.80;99.90
3312;DHT22;1668;49.648;8.570;2024-03-25T01:53:10;6.80;99.90
3312;DHT22;1668;49.648;8.570;2024-03-25T01:55:38;6.80;99.90
3312;DHT22;1668;49.648;8.570;2024-03-25T01:58:05;6.80;99.90
3312;DHT22;1668;49.648;8.570;2024-03-25T02:00:32;6.80;99.90
3312;DHT22;1668;49.648;8.570;2024-03-25T02:03:00;6.80;99.90
3312;DHT22;1668;49.648;8.570;2024-03-25T02:05:28;6.70;99.90
3312;DHT22;1668;49.648;8.570;2024-03-25T02:07:54;6.70;99.90
3312;DHT22;1668;49.648;8.570;2024-03-25T02:10:22;6.60;1.00
3312;DHT22;1668;49.648;8.570;2024-03-25T02:12:48;6.60;1.00
3312;DHT22;1668;49.648;8.570;2024-03-25T02:15:16;6.60;99.90
3312;DHT22;1668;49.648;8.570;2024-03-25T02:17:42;6.60;99.90
3312;DHT22;1668;49.648;8.570;2024-03-25T02:20:12;6.60;99.90
3312;DHT22;1668;49.648;8.570;2024-03-25T02:22:41;6.60;99.90
3312;DHT22;1668;49.648;8.570;2024-03-25T02:25:09;6.60;88.90
3312;DHT22;1668;49.648;8.570;2024-03-25T02:27:37;6.60;86.70
3312;DHT22;1668;49.648;8.570;2024-03-25T02:30:05;6.50;55.80
3312;DHT22;1668;49.648;8.570;2024-03-25T02:32:32;6.50;34.10
3312;DHT22;1668;49.648;8.570;2024-03-25T02:35:01;6.50;92.40
3312;DHT22;1668;49.648;8.570;2024-03-25T02:37:28;6.50;57.90
3312;DHT22;1668;49.648;8.570;2024-03-25T02:39:57;6.50;95.80
3312;DHT22;1668;49.648;8.570;2024-03-25T02:42:23;6.50;99.90
3312;DHT22;1668;49.648;8.570;2024-03-25T02:44:53;6.50;99.90
3312;DHT22;1668;49.648;8.570;2024-03-25T02:47:19;6.50;99.90
3312;DHT22;1668;49.648;8.570;2024-03-25T02:49:46;6.40;99.90
3312;DHT22;1668;49.648;8.570;2024-03-25T02:52:11;6.40;99.90
3312;DHT22;1668;49.648;8.570;2024-03-25T02:54:39;6.40;99.90
3312;DHT22;1668;49.648;8.570;2024-03-25T02:57:04;6.40;99.90
3312;DHT22;1668;49.648;8.570;2024-03-25T02:59:32;6.40;99.90
3312;DHT22;1668;49.648;8.570;2024-03-25T03:01:59;6.30;99.90
3312;DHT22;1668;49.648;8.570;2024-03-25T03:04:26;6.30;99.90
3312;DHT22;1668;49.648;8.570;2024-03-25T03:06:52;6.30;1.00
3312;DHT22;1668;49.648;8.570;2024-03-25T03:09:19;6.20;1.00
3312;DHT22;1668;49.648;8.570;2024-03-25T03:11:45;6.20;1.00
3312;DHT22;1668;49.648;8.570;2024-03-25T03:14:12;6.20;1.00
3312;DHT22;1668;49.648;8.570;2024-03-25T03:16:37;6.20;1.00
3312;DHT22;1668;49.648;8.570;2024-03-25T03:19:06;6.20;1.00
3312;DHT22;1668;49.648;8.570;2024-03-25T03:21:32;6.10;1.00
3312;DHT22;1668;49.648;8.570;2024-03-25T03:23:59;6.10;1.00
3312;DHT22;1668;49.648;8.570;2024-03-25T03:26:25;6.10;1.00
3312;DHT22;1668;49.648;8.570;2024-03-25T03:28:53;6.00;1.00
3312;DHT22;1668;49.648;8.570;2024-03-25T03:31:19;6.00;1.00
3312;DHT22;1668;49.648;8.570;2024-03-25T03:33:47;5.90;1.00
3312;DHT22;1668;49.648;8.570;2024-03-25T03:36:15;5.90;1.00
3312;DHT22;1668;49.648;8.570;2024-03-25T03:38:42;5.90;1.00
3312;DHT22;1668;49.648;8.570;2024-03-25T03:41:08;5.80;1.00
3312;DHT22;1668;49.648;8.570;2024-03-25T03:43:35;5.80;1.00
3312;DHT22;1668;49.648;8.570;2024-03-25T03:46:02;5.80;1.00
3312;DHT22;1668;49.648;8.570;2024-03-25T03:48:29;5.80;1.00
3312;DHT22;1668;49.648;8.570;2024-03-25T03:50:55;5.70;1.00
3312;DHT22;1668;49.648;8.570;2024-03-25T03:53:23;5.70;1.00
3312;DHT22;1668;49.648;8.570;2024-03-25T03:55:55;5.70;1.00
3312;DHT22;1668;49.648;8.570;2024-03-25T03:58:23;5.60;1.00
3312;DHT22;1668;49.648;8.570;2024-03-25T04:00:49;5.60;1.00
3312;DHT22;1668;49.648;8.570;2024-03-25T04:03:16;5.50;94.00
3312;DHT22;1668;49.648;8.570;2024-03-25T04:05:42;5.50;99.90
3312;DHT22;1668;49.648;8.570;2024-03-25T04:08:09;5.50;99.90
3312;DHT22;1668;49.648;8.570;2024-03-25T04:10:37;5.50;91.20
3312;DHT22;1668;49.648;8.570;2024-03-25T04:13:04;5.40;99.90
3312;DHT22;1668;49.648;8.570;2024-03-25T04:15:32;5.40;99.90
3312;DHT22;1668;49.648;8.570;2024-03-25T04:17:59;5.40;99.90
3312;DHT22;1668;49.648;8.570;2024-03-25T04:20:26;5.30;99.90
3312;DHT22;1668;49.648;8.570;2024-03-25T04:22:54;5.30;99.90
3312;DHT22;1668;49.648;8.570;2024-03-25T04:25:20;5.20;99.90
3312;DHT22;1668;49.648;8.570;2024-03-25T04:27:49;5.20;99.90
3312;DHT22;1668;49.648;8.570;2024-03-25T04:30:15;5.10;99.90
3312;DHT22;1668;49.648;8.570;2024-03-25T04:32:42;5.10;1.00
3312;DHT22;1668;49.648;8.570;2024-03-25T04:35:08;5.10;1.00
3312;DHT22;1668;49.648;8.570;2024-03-25T04:37:35;5.10;1.00
3312;DHT22;1668;49.648;8.570;2024-03-25T04:40:02;5.00;99.90
3312;DHT22;1668;49.648;8.570;2024-03-25T04:42:28;5.00;99.90
3312;DHT22;1668;49.648;8.570;2024-03-25T04:44:56;4.90;99.90
3312;DHT22;1668;49.648;8.570;2024-03-25T04:47:22;4.80;99.90
3312;DHT22;1668;49.648;8.570;2024-03-25T04:49:48;4.80;1.00
3312;DHT22;1668;49.648;8.570;2024-03-25T04:52:16;4.80;1.00
3312;DHT22;1668;49.648;8.570;2024-03-25T04:54:42;4.70;1.00
3312;DHT22;1668;49.648;8.570;2024-03-25T04:57:08;4.70;99.90
3312;DHT22;1668;49.648;8.570;2024-03-25T04:59:34;4.60;1.00
3312;DHT22;1668;49.648;8.570;2024-03-25T05:02:02;4.60;1.00
3312;DHT22;1668;49.648;8.570;2024-03-25T05:04:28;4.50;99.90
3312;DHT22;1668;49.648;8.570;2024-03-25T05:06:54;4.50;99.90
3312;DHT22;1668;49.648;8.570;2024-03-25T05:09:20;4.50;99.90
3312;DHT22;1668;49.648;8.570;2024-03-25T05:11:46;4.50;99.90
3312;DHT22;1668;49.648;8.570;2024-03-25T05:14:12;4.50;1.00
3312;DHT22;1668;49.648;8.570;2024-03-25T05:16:38;4.40;1.00
3312;DHT22;1668;49.648;8.570;2024-03-25T05:19:05;4.40;1.00
3312;DHT22;1668;49.648;8.570;2024-03-25T05:21:31;4.40;59.70
3312;DHT22;1668;49.648;8.570;2024-03-25T05:23:57;4.30;28.00
3312;DHT22;1668;49.648;8.570;2024-03-25T05:26:23;4.30;1.00
3312;DHT22;1668;49.648;8.570;2024-03-25T05:28:52;4.20;1.00
3312;DHT22;1668;49.648;8.570;2024-03-25T05:31:18;4.10;99.90
3312;DHT22;1668;49.648;8.570;2024-03-25T05:33:44;4.10;99.90
3312;DHT22;1668;49.648;8.570;2024-03-25T05:36:12;4.00;1.00
3312;DHT22;1668;49.648;8.570;2024-03-25T05:38:38;4.00;1.00
3312;DHT22;1668;49.648;8.570;2024-03-25T05:41:04;4.00;99.90
3312;DHT22;1668;49.648;8.570;2024-03-25T05:43:30;4.00;99.90
3312;DHT22;1668;49.648;8.570;2024-03-25T05:45:56;4.00;99.90
3312;DHT22;1668;49.648;8.570;2024-03-25T05:48:24;4.00;99.90
3312;DHT22;1668;49.648;8.570;2024-03-25T05:51:00;4.00;1.00
3312;DHT22;1668;49.648;8.570;2024-03-25T05:53:28;4.00;1.00
3312;DHT22;1668;49.648;8.570;2024-03-25T05:55:54;4.00;1.00
3312;DHT22;1668;49.648;8.570;2024-03-25T05:58:21;3.90;1.00
3312;DHT22;1668;49.648;8.570;2024-03-25T06:00:47;3.90;1.00
3312;DHT22;1668;49.648;8.570;2024-03-25T06:03:14;3.90;1.00
3312;DHT22;1668;49.648;8.570;2024-03-25T06:05:40;3.90;1.00
3312;DHT22;1668;49.648;8.570;2024-03-25T06:08:06;4.00;1.00
3312;DHT22;1668;49.648;8.570;2024-03-25T06:10:38;4.00;1.00
3312;DHT22;1668;49.648;8.570;2024-03-25T06:13:04;4.00;1.00
3312;DHT22;1668;49.648;8.570;2024-03-25T06:15:30;4.00;1.00
3312;DHT22;1668;49.648;8.570;2024-03-25T06:17:56;4.00;1.00
3312;DHT22;1668;49.648;8.570;2024-03-25T06:20:22;4.10;1.00
3312;DHT22;1668;49.648;8.570;2024-03-25T06:22:48;4.10;40.20
3312;DHT22;1668;49.648;8.570;2024-03-25T06:25:14;4.10;92.30
3312;DHT22;1668;49.648;8.570;2024-03-25T06:27:42;4.10;99.90
3312;DHT22;1668;49.648;8.570;2024-03-25T06:30:09;4.20;83.50
3312;DHT22;1668;49.648;8.570;2024-03-25T06:32:53;4.20;79.90
3312;DHT22;1668;49.648;8.570;2024-03-25T06:35:38;4.20;36.30
3312;DHT22;1668;49.648;8.570;2024-03-25T06:38:04;4.20;50.90
3312;DHT22;1668;49.648;8.570;2024-03-25T06:40:30;4.20;99.90
3312;DHT22;1668;49.648;8.570;2024-03-25T06:42:57;4.20;99.90
3312;DHT22;1668;49.648;8.570;2024-03-25T06:45:23;4.20;99.90
3312;DHT22;1668;49.648;8.570;2024-03-25T06:47:49;4.30;99.90
3312;DHT22;1668;49.648;8.570;2024-03-25T06:50:15;4.30;99.90
3312;DHT22;1668;49.648;8.570;2024-03-25T06:52:41;4.30;99.90
3312;DHT22;1668;49.648;8.570;2024-03-25T06:55:08;4.30;99.90
3312;DHT22;1668;49.648;8.570;2024-03-25T06:57:34;4.30;99.90
3312;DHT22;1668;49.648;8.570;2024-03-25T07:00:01;4.40;1.00
3312;DHT22;1668;49.648;8.570;2024-03-25T07:02:27;4.50;1.00
3312;DHT22;1668;49.648;8.570;2024-03-25T07:04:53;4.50;1.00
3312;DHT22;1668;49.648;8.570;2024-03-25T07:07:19;4.50;1.00
3312;DHT22;1668;49.648;8.570;2024-03-25T07:09:45;4.60;1.00
3312;DHT22;1668;49.648;8.570;2024-03-25T07:12:11;4.70;1.00
3312;DHT22;1668;49.648;8.570;2024-03-25T07:14:37;4.60;1.00
3312;DHT22;1668;49.648;8.570;2024-03-25T07:17:05;4.70;1.00
3312;DHT22;1668;49.648;8.570;2024-03-25T07:19:31;4.80;1.00
3312;DHT22;1668;49.648;8.570;2024-03-25T07:21:57;4.80;1.00
3312;DHT22;1668;49.648;8.570;2024-03-25T07:24:23;4.90;1.00
3312;DHT22;1668;49.648;8.570;2024-03-25T07:26:49;5.00;1.00
3312;DHT22;1668;49.648;8.570;2024-03-25T07:29:14;5.00;1.00
3312;DHT22;1668;49.648;8.570;2024-03-25T07:31:40;5.10;99.90
3312;DHT22;1668;49.648;8.570;2024-03-25T07:34:08;5.20;99.90
3312;DHT22;1668;49.648;8.570;2024-03-25T07:36:34;5.20;99.90
3312;DHT22;1668;49.648;8.570;2024-03-25T07:38:59;5.30;99.90
3312;DHT22;1668;49.648;8.570;2024-03-25T07:41:25;5.40;99.90
3312;DHT22;1668;49.648;8.570;2024-03-25T07:43:51;5.50;99.90
3312;DHT22;1668;49.648;8.570;2024-03-25T07:46:17;5.50;1.00
3312;DHT22;1668;49.648;8.570;2024-03-25T07:48:43;5.60;1.00
3312;DHT22;1668;49.648;8.570;2024-03-25T07:51:11;5.70;1.00
3312;DHT22;1668;49.648;8.570;2024-03-25T07:53:37;5.70;99.90
3312;DHT22;1668;49.648;8.570;2024-03-25T07:56:03;5.80;1.00
3312;DHT22;1668;49.648;8.570;2024-03-25T07:58:29;5.80;99.90
3312;DHT22;1668;49.648;8.570;2024-03-25T08:00:55;5.90;99.90
3312;DHT22;1668;49.648;8.570;2024-03-25T08:03:21;6.00;99.90
3312;DHT22;1668;49.648;8.570;2024-03-25T08:05:48;6.00;99.90
3312;DHT22;1668;49.648;8.570;2024-03-25T08:08:15;6.10;99.90
3312;DHT22;1668;49.648;8.570;2024-03-25T08:10:41;6.20;55.30
3312;DHT22;1668;49.648;8.570;2024-03-25T08:13:07;6.40;1.00
3312;DHT22;1668;49.648;8.570;2024-03-25T08:15:32;6.50;94.50
3312;DHT22;1668;49.648;8.570;2024-03-25T08:17:58;6.50;1.00
3312;DHT22;1668;49.648;8.570;2024-03-25T08:20:24;6.60;1.00
3312;DHT22;1668;49.648;8.570;2024-03-25T08:22:50;6.70;1.00
3312;DHT22;1668;49.648;8.570;2024-03-25T08:25:18;6.70;99.90
3312;DHT22;1668;49.648;8.570;2024-03-25T08:27:44;6.80;65.40
3312;DHT22;1668;49.648;8.570;2024-03-25T08:30:10;6.90;1.00
3312;DHT22;1668;49.648;8.570;2024-03-25T08:32:37;7.10;99.90
3312;DHT22;1668;49.648;8.570;2024-03-25T08:35:03;7.20;1.00
3312;DHT22;1668;49.648;8.570;2024-03-25T08:37:29;7.20;1.00
3312;DHT22;1668;49.648;8.570;2024-03-25T08:39:55;7.20;99.90
3312;DHT22;1668;49.648;8.570;2024-03-25T08:42:22;7.30;1.00
3312;DHT22;1668;49.648;8.570;2024-03-25T08:44:48;7.40;1.00
3312;DHT22;1668;49.648;8.570;2024-03-25T08:47:14;7.50;99.90
3312;DHT22;1668;49.648;8.570;2024-03-25T08:49:40;7.50;99.90
3312;DHT22;1668;49.648;8.570;2024-03-25T08:52:06;7.60;13.20
3312;DHT22;1668;49.648;8.570;2024-03-25T08:54:32;7.60;99.90
3312;DHT22;1668;49.648;8.570;2024-03-25T08:56:58;7.60;99.90
3312;DHT22;1668;49.648;8.570;2024-03-25T08:59:25;7.60;99.90
3312;DHT22;1668;49.648;8.570;2024-03-25T09:01:51;7.50;1.00
3312;DHT22;1668;49.648;8.570;2024-03-25T09:04:17;7.60;27.40
3312;DHT22;1668;49.648;8.570;2024-03-25T09:06:43;7.70;1.00
3312;DHT22;1668;49.648;8.570;2024-03-25T09:09:09;7.70;1.00
3312;DHT22;1668;49.648;8.570;2024-03-25T09:11:53;7.80;1.00
3312;DHT22;1668;49.648;8.570;2024-03-25T09:14:19;7.90;1.00
3312;DHT22;1668;49.648;8.570;2024-03-25T09:16:46;8.00;99.90
3312;DHT22;1668;49.648;8.570;2024-03-25T09:19:12;7.90;99.90
3312;DHT22;1668;49.648;8.570;2024-03-25T09:21:38;8.10;99.90
3312;DHT22;1668;49.648;8.570;2024-03-25T09:24:05;8.20;99.90
3312;DHT22;1668;49.648;8.570;2024-03-25T09:26:31;8.30;99.90
3312;DHT22;1668;49.648;8.570;2024-03-25T09:28:57;8.40;99.90
3312;DHT22;1668;49.648;8.570;2024-03-25T09:31:23;8.40;99.90
3312;DHT22;1668;49.648;8.570;2024-03-25T09:33:50;8.40;99.90
3312;DHT22;1668;49.648;8.570;2024-03-25T09:36:16;8.50;99.90
3312;DHT22;1668;49.648;8.570;2024-03-25T09:38:42;8.60;99.90
3312;DHT22;1668;49.648;8.570;2024-03-25T09:41:08;8.70;99.90
3312;DHT22;1668;49.648;8.570;2024-03-25T09:43:43;8.80;99.90
3312;DHT22;1668;49.648;8.570;2024-03-25T09:46:09;8.90;99.90
3312;DHT22;1668;49.648;8.570;2024-03-25T09:48:36;9.00;67.60
3312;DHT22;1668;49.648;8.570;2024-03-25T09:51:04;9.10;1.00
3312;DHT22;1668;49.648;8.570;2024-03-25T09:53:30;9.20;1.00
3312;DHT22;1668;49.648;8.570;2024-03-25T09:55:57;9.30;1.00
3312;DHT22;1668;49.648;8.570;2024-03-25T09:58:25;9.40;1.00
3312;DHT22;1668;49.648;8.570;2024-03-25T10:00:51;9.40;1.00
3312;DHT22;1668;49.648;8.570;2024-03-25T10:03:17;9.50;1.00
3312;DHT22;1668;49.648;8.570;2024-03-25T10:05:43;9.40;1.00
3312;DHT22;1668;49.648;8.570;2024-03-25T10:08:10;9.40;1.00
3312;DHT22;1668;49.648;8.570;2024-03-25T10:10:36;9.60;1.00
3312;DHT22;1668;49.648;8.570;2024-03-25T10:13:03;9.70;1.00
3312;DHT22;1668;49.648;8.570;2024-03-25T10:15:29;9.70;1.00
3312;DHT22;1668;49.648;8.570;2024-03-25T10:17:55;9.80;1.00
3312;DHT22;1668;49.648;8.570;2024-03-25T10:20:21;9.80;1.00
3312;DHT22;1668;49.648;8.570;2024-03-25T10:22:47;9.90;1.00
3312;DHT22;1668;49.648;8.570;2024-03-25T10:25:22;10.00;1.00
3312;DHT22;1668;49.648;8.570;2024-03-25T10:27:56;10.10;1.00
3312;DHT22;1668;49.648;8.570;2024-03-25T10:30:22;10.10;1.00
3312;DHT22;1668;49.648;8.570;2024-03-25T10:32:59;10.20;1.00
3312;DHT22;1668;49.648;8.570;2024-03-25T10:35:26;10.40;1.00
3312;DHT22;1668;49.648;8.570;2024-03-25T10:37:55;10.40;1.00
3312;DHT22;1668;49.648;8.570;2024-03-25T10:40:26;10.50;1.00
3312;DHT22;1668;49.648;8.570;2024-03-25T10:42:55;10.70;1.00
3312;DHT22;1668;49.648;8.570;2024-03-25T10:45:22;10.80;1.00
3312;DHT22;1668;49.648;8.570;2024-03-25T10:47:48;10.90;1.00
3312;DHT22;1668;49.648;8.570;2024-03-25T10:50:16;11.00;1.00
3312;DHT22;1668;49.648;8.570;2024-03-25T10:52:45;10.90;1.00
3312;DHT22;1668;49.648;8.570;2024-03-25T10:55:11;10.80;1.00
3312;DHT22;1668;49.648;8.570;2024-03-25T10:57:39;10.70;1.00
3312;DHT22;1668;49.648;8.570;2024-03-25T11:00:06;10.70;1.00
3312;DHT22;1668;49.648;8.570;2024-03-25T11:02:32;10.70;1.00
3312;DHT22;1668;49.648;8.570;2024-03-25T11:04:58;10.70;1.00
3312;DHT22;1668;49.648;8.570;2024-03-25T11:07:30;10.90;1.00
3312;DHT22;1668;49.648;8.570;2024-03-25T11:10:03;11.10;1.00
3312;DHT22;1668;49.648;8.570;2024-03-25T11:12:32;11.30;1.00
3312;DHT22;1668;49.648;8.570;2024-03-25T11:15:01;11.30;1.00
3312;DHT22;1668;49.648;8.570;2024-03-25T11:17:27;11.40;1.00
3312;DHT22;1668;49.648;8.570;2024-03-25T11:19:53;11.50;1.00
3312;DHT22;1668;49.648;8.570;2024-03-25T11:22:24;11.50;1.00
3312;DHT22;1668;49.648;8.570;2024-03-25T11:24:51;11.60;1.00
3312;DHT22;1668;49.648;8.570;2024-03-25T11:27:21;11.80;1.00
3312;DHT22;1668;49.648;8.570;2024-03-25T11:29:48;11.80;1.00
3312;DHT22;1668;49.648;8.570;2024-03-25T11:32:15;11.70;1.00
3312;DHT22;1668;49.648;8.570;2024-03-25T11:34:50;11.60;1.00
3312;DHT22;1668;49.648;8.570;2024-03-25T11:37:16;11.40;1.00
3312;DHT22;1668;49.648;8.570;2024-03-25T11:39:42;11.40;1.00
3312;DHT22;1668;49.648;8.570;2024-03-25T11:42:08;11.30;1.00
3312;DHT22;1668;49.648;8.570;2024-03-25T11:44:36;11.50;1.00
3312;DHT22;1668;49.648;8.570;2024-03-25T11:47:02;11.80;1.00
3312;DHT22;1668;49.648;8.570;2024-03-25T11:49:30;11.90;1.00
3312;DHT22;1668;49.648;8.570;2024-03-25T11:51:58;12.10;1.00
3312;DHT22;1668;49.648;8.570;2024-03-25T11:54:27;12.30;1.00
3312;DHT22;1668;49.648;8.570;2024-03-25T11:56:53;12.50;1.00
3312;DHT22;1668;49.648;8.570;2024-03-25T11:59:19;12.60;1.00
3312;DHT22;1668;49.648;8.570;2024-03-25T12:01:46;12.80;1.00
3312;DHT22;1668;49.648;8.570;2024-03-25T12:04:15;13.00;1.00
3312;DHT22;1668;49.648;8.570;2024-03-25T12:06:43;13.00;1.00
3312;DHT22;1668;49.648;8.570;2024-03-25T12:09:09;13.30;1.00
3312;DHT22;1668;49.648;8.570;2024-03-25T12:11:54;13.20;1.00
3312;DHT22;1668;49.648;8.570;2024-03-25T12:14:21;13.40;1.00
3312;DHT22;1668;49.648;8.570;2024-03-25T12:16:47;13.30;1.00
3312;DHT22;1668;49.648;8.570;2024-03-25T12:19:14;13.50;1.00
3312;DHT22;1668;49.648;8.570;2024-03-25T12:21:40;13.70;1.00
3312;DHT22;1668;49.648;8.570;2024-03-25T12:24:08;13.70;1.00
3312;DHT22;1668;49.648;8.570;2024-03-25T12:26:34;13.70;1.00
3312;DHT22;1668;49.648;8.570;2024-03-25T12:29:00;13.80;1.00
3312;DHT22;1668;49.648;8.570;2024-03-25T12:31:26;14.00;1.00
3312;DHT22;1668;49.648;8.570;2024-03-25T12:33:52;14.10;1.00
3312;DHT22;1668;49.648;8.570;2024-03-25T12:36:20;13.90;1.00
3312;DHT22;1668;49.648;8.570;2024-03-25T12:38:54;14.00;1.00
3312;DHT22;1668;49.648;8.570;2024-03-25T12:41:22;14.00;1.00
3312;DHT22;1668;49.648;8.570;2024-03-25T12:43:50;13.90;1.00
3312;DHT22;1668;49.648;8.570;2024-03-25T12:46:16;14.10;1.00
3312;DHT22;1668;49.648;8.570;2024-03-25T12:48:42;14.00;1.00
3312;DHT22;1668;49.648;8.570;2024-03-25T12:51:12;14.00;1.00
3312;DHT22;1668;49.648;8.570;2024-03-25T12:53:39;14.20;1.00
3312;DHT22;1668;49.648;8.570;2024-03-25T12:56:05;14.10;1.00
3312;DHT22;1668;49.648;8.570;2024-03-25T12:58:32;14.20;1.00
3312;DHT22;1668;49.648;8.570;2024-03-25T13:00:58;14.20;1.00
3312;DHT22;1668;49.648;8.570;2024-03-25T13:03:24;14.10;1.00
3312;DHT22;1668;49.648;8.570;2024-03-25T13:05:50;14.00;1.00
3312;DHT22;1668;49.648;8.570;2024-03-25T13:08:19;14.10;1.00
3312;DHT22;1668;49.648;8.570;2024-03-25T13:10:45;14.00;1.00
3312;DHT22;1668;49.648;8.570;2024-03-25T13:13:11;14.00;1.00
3312;DHT22;1668;49.648;8.570;2024-03-25T13:15:38;14.10;1.00
3312;DHT22;1668;49.648;8.570;2024-03-25T13:18:05;14.00;1.00
3312;DHT22;1668;49.648;8.570;2024-03-25T13:20:31;14.10;1.00
3312;DHT22;1668;49.648;8.570;2024-03-25T13:22:56;14.20;1.00
3312;DHT22;1668;49.648;8.570;2024-03-25T13:25:22;14.20;1.00
3312;DHT22;1668;49.648;8.570;2024-03-25T13:27:48;14.10;1.00
3312;DHT22;1668;49.648;8.570;2024-03-25T13:30:14;13.90;1.00
3312;DHT22;1668;49.648;8.570;2024-03-25T13:32:42;14.00;1.00
3312;DHT22;1668;49.648;8.570;2024-03-25T13:35:07;13.90;1.00
3312;DHT22;1668;49.648;8.570;2024-03-25T13:37:33;13.90;1.00
3312;DHT22;1668;49.648;8.570;2024-03-25T13:39:59;13.80;1.00
3312;DHT22;1668;49.648;8.570;2024-03-25T13:42:25;13.80;1.00
3312;DHT22;1668;49.648;8.570;2024-03-25T13:44:51;13.70;1.00
3312;DHT22;1668;49.648;8.570;2024-03-25T13:47:17;13.70;1.00
3312;DHT22;1668;49.648;8.570;2024-03-25T13:49:44;13.70;1.00
3312;DHT22;1668;49.648;8.570;2024-03-25T13:52:10;13.80;1.00
3312;DHT22;1668;49.648;8.570;2024-03-25T13:54:35;13.70;1.00
3312;DHT22;1668;49.648;8.570;2024-03-25T13:57:02;13.70;1.00
3312;DHT22;1668;49.648;8.570;2024-03-25T13:59:28;13.90;1.00
3312;DHT22;1668;49.648;8.570;2024-03-25T14:01:54;14.00;1.00
3312;DHT22;1668;49.648;8.570;2024-03-25T14:04:19;14.30;1.00
3312;DHT22;1668;49.648;8.570;2024-03-25T14:06:47;14.30;1.00
3312;DHT22;1668;49.648;8.570;2024-03-25T14:09:23;14.10;1.00
3312;DHT22;1668;49.648;8.570;2024-03-25T14:11:50;14.10;1.00
3312;DHT22;1668;49.648;8.570;2024-03-25T14:14:15;14.40;1.00
3312;DHT22;1668;49.648;8.570;2024-03-25T14:16:41;14.20;1.00
3312;DHT22;1668;49.648;8.570;2024-03-25T14:19:07;14.20;1.00
3312;DHT22;1668;49.648;8.570;2024-03-25T14:21:33;14.30;1.00
3312;DHT22;1668;49.648;8.570;2024-03-25T14:24:00;14.80;1.00
3312;DHT22;1668;49.648;8.570;2024-03-25T14:26:26;14.80;1.00
3312;DHT22;1668;49.648;8.570;2024-03-25T14:28:52;15.40;1.00
3312;DHT22;1668;49.648;8.570;2024-03-25T14:31:18;15.60;1.00
3312;DHT22;1668;49.648;8.570;2024-03-25T14:33:44;15.70;1.00
3312;DHT22;1668;49.648;8.570;2024-03-25T14:36:10;15.90;1.00
3312;DHT22;1668;49.648;8.570;2024-03-25T14:38:35;16.00;1.00
3312;DHT22;1668;49.648;8.570;2024-03-25T14:41:03;16.20;1.00
3312;DHT22;1668;49.648;8.570;2024-03-25T14:43:28;16.40;1.00
3312;DHT22;1668;49.648;8.570;2024-03-25T14:45:54;16.20;1.00
3312;DHT22;1668;49.648;8.570;2024-03-25T14:48:20;16.20;1.00
3312;DHT22;1668;49.648;8.570;2024-03-25T14:50:46;16.00;1.00
3312;DHT22;1668;49.648;8.570;2024-03-25T14:53:12;16.30;1.00
3312;DHT22;1668;49.648;8.570;2024-03-25T14:55:38;16.70;1.00
3312;DHT22;1668;49.648;8.570;2024-03-25T14:58:05;17.20;1.00
3312;DHT22;1668;49.648;8.570;2024-03-25T15:00:31;17.60;1.00
3312;DHT22;1668;49.648;8.570;2024-03-25T15:02:57;17.80;1.00
3312;DHT22;1668;49.648;8.570;2024-03-25T15:05:23;17.80;1.00
3312;DHT22;1668;49.648;8.570;2024-03-25T15:07:48;17.80;1.00
3312;DHT22;1668;49.648;8.570;2024-03-25T15:10:14;18.10;1.00
3312;DHT22;1668;49.648;8.570;2024-03-25T15:12:40;17.70;1.00
3312;DHT22;1668;49.648;8.570;2024-03-25T15:15:08;17.40;1.00
3312;DHT22;1668;49.648;8.570;2024-03-25T15:17:34;17.10;1.00
3312;DHT22;1668;49.648;8.570;2024-03-25T15:20:01;17.10;1.00
3312;DHT22;1668;49.648;8.570;2024-03-25T15:22:27;17.10;1.00
3312;DHT22;1668;49.648;8.570;2024-03-25T15:24:52;16.90;1.00
3312;DHT22;1668;49.648;8.570;2024-03-25T15:27:18;16.90;1.00
3312;DHT22;1668;49.648;8.570;2024-03-25T15:29:44;16.80;1.00
3312;DHT22;1668;49.648;8.570;2024-03-25T15:32:11;16.80;1.00
3312;DHT22;1668;49.648;8.570;2024-03-25T15:34:37;16.50;1.00
3312;DHT22;1668;49.648;8.570;2024-03-25T15:37:03;16.30;1.00
3312;DHT22;1668;49.648;8.570;2024-03-25T15:39:29;15.90;1.00
3312;DHT22;1668;49.648;8.570;2024-03-25T15:41:55;15.60;1.00
3312;DHT22;1668;49.648;8.570;2024-03-25T15:44:21;15.20;1.00
3312;DHT22;1668;49.648;8.570;2024-03-25T15:46:47;15.20;1.00
3312;DHT22;1668;49.648;8.570;2024-03-25T15:49:14;15.20;1.00
3312;DHT22;1668;49.648;8.570;2024-03-25T15:51:40;15.10;1.00
3312;DHT22;1668;49.648;8.570;2024-03-25T15:54:06;15.00;1.00
3312;DHT22;1668;49.648;8.570;2024-03-25T15:56:32;15.00;1.00
3312;DHT22;1668;49.648;8.570;2024-03-25T15:58:58;15.00;1.00
3312;DHT22;1668;49.648;8.570;2024-03-25T16:01:24;15.00;1.00
3312;DHT22;1668;49.648;8.570;2024-03-25T16:03:50;14.90;1.00
3312;DHT22;1668;49.648;8.570;2024-03-25T16:06:17;14.80;1.00
3312;DHT22;1668;49.648;8.570;2024-03-25T16:08:43;14.70;1.00
3312;DHT22;1668;49.648;8.570;2024-03-25T16:11:14;14.50;1.00
3312;DHT22;1668;49.648;8.570;2024-03-25T16:13:40;14.40;1.00
3312;DHT22;1668;49.648;8.570;2024-03-25T16:16:06;14.40;1.00
3312;DHT22;1668;49.648;8.570;2024-03-25T16:18:32;14.30;1.00
3312;DHT22;1668;49.648;8.570;2024-03-25T16:20:58;14.20;1.00